Time;durP1;ratioP1;P1;durP2;ratioP2;P2;SDS_P1;SDS_P2;PMS_P1;PMS_P2;Temp;Humidity;BMP_temperature;BMP_pressure;BME280_temperature;BME280_humidity;BME280_pressure;Samples;Min_cycle;Max_cycle;Signal;HPM_P1;HPM_P2
2020/12/18 00:02:26;;;;;;;5.03;4.00;;;4.00;85.50;;;;;;5096965;28;20297;-69
2020/12/18 00:04:52;;;;;;;4.63;3.47;;;3.90;85.90;;;;;;5096783;28;20492;-69
2020/12/18 00:07:19;;;;;;;4.57;3.83;;;3.80;86.10;;;;;;5096984;28;20029;-69
2020/12/18 00:09:45;;;;;;;4.68;3.85;;;3.80;86.80;;;;;;5097058;28;20023;-69
2020/12/18 00:12:11;;;;;;;4.57;3.80;;;3.70;87.10;;;;;;5097007;28;20032;-69
2020/12/18 00:14:37;;;;;;;4.30;3.28;;;3.70;87.20;;;;;;5096977;28;20327;-69
2020/12/18 00:17:05;;;;;;;4.88;4.00;;;3.70;86.90;;;;;;5078875;28;20051;-69
2020/12/18 00:19:32;;;;;;;4.95;4.00;;;3.70;86.90;;;;;;5096791;28;20380;-69
2020/12/18 00:21:59;;;;;;;4.72;3.50;;;3.80;86.50;;;;;;5096750;28;20343;-69
2020/12/18 00:24:24;;;;;;;3.97;3.50;;;3.80;86.10;;;;;;5078919;28;20441;-69
2020/12/18 00:26:50;;;;;;;4.88;3.03;;;3.80;86.10;;;;;;5096578;28;20126;-69
2020/12/18 00:29:16;;;;;;;5.35;3.17;;;3.80;86.10;;;;;;5096705;28;20068;-69
2020/12/18 00:31:41;;;;;;;4.85;3.42;;;3.80;86.30;;;;;;5098405;28;20028;-69
2020/12/18 00:34:08;;;;;;;4.93;4.00;;;3.90;86.10;;;;;;5100972;28;20024;-69
2020/12/18 00:36:33;;;;;;;6.32;3.95;;;4.10;85.50;;;;;;5100779;28;20470;-69
2020/12/18 00:38:59;;;;;;;4.88;3.60;;;4.20;85.10;;;;;;5101034;28;20024;-69
2020/12/18 00:41:25;;;;;;;4.85;3.40;;;4.20;84.50;;;;;;5100732;28;20032;-69
2020/12/18 00:43:53;;;;;;;4.82;4.32;;;4.30;84.10;;;;;;5100448;28;20020;-69
2020/12/18 00:46:18;;;;;;;4.90;3.78;;;4.40;83.90;;;;;;5100869;28;20319;-69
2020/12/18 00:48:44;;;;;;;3.00;2.67;;;4.30;83.80;;;;;;5100794;28;20099;-69
2020/12/18 00:51:14;;;;;;;4.97;3.03;;;4.30;83.60;;;;;;5100745;28;20028;-69
2020/12/18 00:53:40;;;;;;;3.20;2.90;;;4.50;83.10;;;;;;5082715;28;20504;-69
2020/12/18 00:56:09;;;;;;;5.18;4.20;;;4.50;82.60;;;;;;5100387;28;20032;-69
2020/12/18 00:58:35;;;;;;;4.35;3.20;;;4.50;82.60;;;;;;5100378;28;20020;-69
2020/12/18 01:01:02;;;;;;;4.72;3.35;;;4.50;82.90;;;;;;5100462;28;20024;-69
2020/12/18 01:03:27;;;;;;;4.28;3.00;;;4.50;82.70;;;;;;5100183;28;20077;-69
2020/12/18 01:05:54;;;;;;;5.75;3.90;;;4.50;82.90;;;;;;5100436;28;20028;-69
2020/12/18 01:08:19;;;;;;;4.97;3.90;;;4.50;82.90;;;;;;5100177;28;20020;-69
2020/12/18 01:10:45;;;;;;;5.22;4.20;;;4.50;83.20;;;;;;5100139;28;20107;-69
2020/12/18 01:13:11;;;;;;;5.53;3.70;;;4.50;83.10;;;;;;5100313;28;20111;-69
2020/12/18 01:15:36;;;;;;;4.40;3.88;;;4.50;83.00;;;;;;5100233;28;20032;-69
2020/12/18 01:18:02;;;;;;;4.53;4.13;;;4.40;83.40;;;;;;5099974;28;20024;-69
2020/12/18 01:20:28;;;;;;;5.30;4.72;;;4.30;83.50;;;;;;5100251;28;20308;-69
2020/12/18 01:22:53;;;;;;;5.57;3.97;;;4.40;83.60;;;;;;5099789;28;20095;-70
2020/12/18 01:25:19;;;;;;;4.18;3.72;;;4.30;83.60;;;;;;5100037;28;20320;-68
2020/12/18 01:27:45;;;;;;;5.68;4.63;;;4.30;84.00;;;;;;5099692;28;20434;-68
2020/12/18 01:30:11;;;;;;;4.78;4.20;;;4.40;83.70;;;;;;5100015;28;20044;-69
2020/12/18 01:32:37;;;;;;;4.53;3.90;;;4.50;83.60;;;;;;5099717;28;20020;-69
2020/12/18 01:35:03;;;;;;;7.05;4.07;;;4.50;83.60;;;;;;5099625;28;20027;-69
2020/12/18 01:37:29;;;;;;;5.95;4.68;;;4.50;83.40;;;;;;5099685;28;20020;-69
2020/12/18 01:39:55;;;;;;;5.10;4.15;;;4.50;83.30;;;;;;5099824;28;20024;-69
2020/12/18 01:42:20;;;;;;;5.97;4.50;;;4.60;83.50;;;;;;5099400;28;20028;-69
2020/12/18 01:44:46;;;;;;;5.72;4.03;;;4.60;83.00;;;;;;5099497;28;20078;-69
2020/12/18 01:47:32;;;;;;;6.28;5.13;;;4.60;82.90;;;;;;5099459;28;20101;-69
2020/12/18 01:49:58;;;;;;;5.68;4.47;;;4.50;82.90;;;;;;5099456;28;20035;-69
2020/12/18 01:52:25;;;;;;;6.93;4.28;;;4.50;83.10;;;;;;5081355;28;20107;-69
2020/12/18 01:54:55;;;;;;;5.55;4.25;;;4.40;83.20;;;;;;5099724;28;20036;-69
2020/12/18 01:57:22;;;;;;;5.95;4.47;;;4.40;83.50;;;;;;5099300;28;20040;-69
2020/12/18 01:59:48;;;;;;;5.43;4.82;;;4.30;83.70;;;;;;5099271;28;20032;-69
2020/12/18 02:02:16;;;;;;;6.05;5.05;;;4.20;83.90;;;;;;5081268;28;20074;-69
2020/12/18 02:04:48;;;;;;;6.40;4.88;;;4.30;83.80;;;;;;5099024;28;20035;-69
2020/12/18 02:07:21;;;;;;;5.40;4.20;;;4.30;83.80;;;;;;5081056;28;20024;-69
2020/12/18 02:09:53;;;;;;;5.93;3.90;;;4.20;84.00;;;;;;5099157;28;20025;-69
2020/12/18 02:12:19;;;;;;;4.10;3.65;;;4.30;83.80;;;;;;5099197;28;20301;-69
2020/12/18 02:14:52;;;;;;;5.88;4.00;;;4.30;83.70;;;;;;5098852;28;20035;-69
2020/12/18 02:17:18;;;;;;;4.50;3.60;;;4.40;83.30;;;;;;5098801;28;20077;-69
2020/12/18 02:19:50;;;;;;;4.07;3.58;;;4.40;83.30;;;;;;5098925;28;20097;-69
2020/12/18 02:22:18;;;;;;;5.57;3.42;;;4.30;83.50;;;;;;5098812;28;20024;-69
2020/12/18 02:25:00;;;;;;;3.70;3.33;;;4.30;83.70;;;;;;5098491;28;20362;-70
2020/12/18 02:27:25;;;;;;;3.42;2.60;;;4.40;83.60;;;;;;5098739;28;20169;-71
2020/12/18 02:29:51;;;;;;;4.05;2.95;;;4.40;83.40;;;;;;5080732;28;20061;-69
2020/12/18 02:32:18;;;;;;;3.72;3.17;;;4.40;83.40;;;;;;5098809;28;20023;-69
2020/12/18 02:34:44;;;;;;;4.57;3.85;;;4.50;82.90;;;;;;5098421;28;20027;-70
2020/12/18 02:37:09;;;;;;;6.53;3.67;;;4.50;83.10;;;;;;5080540;28;20107;-69
2020/12/18 02:39:35;;;;;;;4.30;3.25;;;4.40;83.10;;;;;;5098340;28;20412;-70
2020/12/18 02:42:03;;;;;;;4.80;3.80;;;4.40;83.40;;;;;;5098590;28;20031;-69
2020/12/18 02:44:29;;;;;;;4.93;3.75;;;4.40;83.20;;;;;;5098476;28;20044;-69
2020/12/18 02:46:55;;;;;;;4.60;3.50;;;4.30;83.40;;;;;;5098794;28;20427;-69
2020/12/18 02:49:20;;;;;;;3.05;2.75;;;4.30;83.80;;;;;;5080272;28;20062;-70
2020/12/18 02:51:46;;;;;;;4.38;3.33;;;4.30;83.50;;;;;;5098497;28;20061;-69
2020/12/18 02:54:12;;;;;;;3.20;2.22;;;4.30;83.80;;;;;;5097547;28;20115;-69
2020/12/18 02:56:38;;;;;;;3.97;3.08;;;4.30;83.90;;;;;;5098055;28;20032;-70
2020/12/18 02:59:06;;;;;;;3.17;2.70;;;4.40;83.90;;;;;;5098055;28;20034;-69
2020/12/18 03:01:32;;;;;;;3.42;2.95;;;4.40;83.40;;;;;;5098088;28;20024;-71
2020/12/18 03:03:58;;;;;;;3.10;2.60;;;4.40;83.00;;;;;;5097780;28;20047;-69
2020/12/18 03:06:24;;;;;;;3.00;2.70;;;4.30;83.40;;;;;;5097831;28;20028;-69
2020/12/18 03:08:49;;;;;;;4.93;3.67;;;4.20;83.50;;;;;;5079874;28;20045;-69
2020/12/18 03:11:15;;;;;;;3.67;2.97;;;4.10;83.80;;;;;;5097695;28;20044;-69
2020/12/18 03:13:44;;;;;;;4.25;3.42;;;4.00;84.90;;;;;;5097675;28;20039;-69
2020/12/18 03:16:12;;;;;;;5.20;4.03;;;4.00;84.80;;;;;;5079796;28;20020;-69
2020/12/18 03:18:42;;;;;;;3.67;3.25;;;4.00;84.80;;;;;;5097664;28;20416;-69
2020/12/18 03:21:10;;;;;;;4.40;3.95;;;4.00;84.70;;;;;;5097683;28;20412;-69
2020/12/18 03:23:35;;;;;;;4.90;3.10;;;3.90;85.20;;;;;;5097634;28;20036;-71
2020/12/18 03:26:01;;;;;;;5.53;4.35;;;3.90;85.20;;;;;;5097511;28;20427;-69
2020/12/18 03:28:27;;;;;;;3.72;3.10;;;3.90;85.20;;;;;;5097513;28;20028;-69
2020/12/18 03:30:53;;;;;;;4.35;3.50;;;3.90;85.20;;;;;;5097509;28;20311;-69
2020/12/18 03:33:18;;;;;;;4.85;2.92;;;3.90;84.90;;;;;;5097419;28;20060;-69
2020/12/18 03:35:44;;;;;;;5.53;3.25;;;3.90;85.00;;;;;;5097191;28;20051;-69
2020/12/18 03:38:10;;;;;;;3.63;2.70;;;3.80;85.20;;;;;;5097486;28;20081;-69
2020/12/18 03:40:35;;;;;;;3.63;2.97;;;3.90;85.40;;;;;;5097382;28;20020;-69
2020/12/18 03:43:01;;;;;;;3.53;2.60;;;3.80;85.50;;;;;;5097206;28;20028;-69
2020/12/18 03:45:27;;;;;;;5.10;2.60;;;3.70;86.00;;;;;;5097457;28;20020;-69
2020/12/18 03:47:52;;;;;;;2.72;2.30;;;3.60;86.80;;;;;;5097495;28;20020;-69
2020/12/18 03:50:18;;;;;;;4.10;2.33;;;3.60;87.30;;;;;;5097170;28;20035;-69
2020/12/18 03:52:44;;;;;;;3.63;2.60;;;3.50;87.70;;;;;;5097120;28;20035;-69
2020/12/18 03:55:09;;;;;;;3.95;2.40;;;3.60;87.00;;;;;;5097562;28;20068;-69
2020/12/18 03:57:35;;;;;;;3.10;2.58;;;3.60;87.20;;;;;;5097678;28;20107;-71
2020/12/18 04:00:01;;;;;;;3.95;2.83;;;3.60;87.30;;;;;;5097108;28;20020;-71
2020/12/18 04:02:26;;;;;;;3.35;2.50;;;3.80;86.50;;;;;;5096996;28;20067;-71
2020/12/18 04:04:54;;;;;;;3.78;2.80;;;3.90;85.80;;;;;;5096730;28;20082;-71
2020/12/18 04:07:20;;;;;;;4.10;2.95;;;3.90;85.10;;;;;;5079021;28;20024;-69
2020/12/18 04:09:46;;;;;;;3.28;2.78;;;3.90;85.00;;;;;;5097056;28;20016;-69
2020/12/18 04:12:12;;;;;;;3.47;3.05;;;3.90;84.80;;;;;;5097399;28;20024;-69
2020/12/18 04:14:39;;;;;;;3.95;3.08;;;3.90;84.90;;;;;;5096995;28;20017;-69
2020/12/18 04:17:05;;;;;;;3.55;2.67;;;3.80;85.10;;;;;;5097096;28;20028;-69
2020/12/18 04:19:31;;;;;;;4.28;2.75;;;3.80;85.10;;;;;;5096829;28;20024;-69
2020/12/18 04:21:58;;;;;;;3.00;2.60;;;3.80;85.50;;;;;;5078853;28;20435;-69
2020/12/18 04:24:23;;;;;;;3.10;2.60;;;3.80;85.00;;;;;;5096962;28;20349;-69
2020/12/18 04:26:49;;;;;;;4.55;2.97;;;3.90;84.80;;;;;;5096492;28;20130;-69
2020/12/18 04:29:15;;;;;;;3.72;2.83;;;3.90;84.60;;;;;;5096678;28;20051;-69
2020/12/18 04:31:42;;;;;;;3.67;2.80;;;3.90;84.80;;;;;;5078876;28;20020;-69
2020/12/18 04:34:08;;;;;;;3.05;2.20;;;3.80;85.00;;;;;;5096556;28;20483;-69
2020/12/18 04:36:34;;;;;;;3.45;2.58;;;3.70;85.20;;;;;;5096674;28;20400;-69
2020/12/18 04:39:00;;;;;;;2.90;2.38;;;3.70;85.70;;;;;;5096635;28;20024;-69
2020/12/18 04:41:27;;;;;;;4.85;2.47;;;3.80;85.50;;;;;;5096937;28;20477;-69
2020/12/18 04:43:54;;;;;;;3.20;2.28;;;3.80;85.20;;;;;;5096433;28;20016;-69
2020/12/18 04:46:21;;;;;;;3.63;2.58;;;3.80;85.20;;;;;;5096580;28;20027;-69
2020/12/18 04:48:48;;;;;;;3.65;2.95;;;3.80;85.00;;;;;;5096612;28;20070;-69
2020/12/18 04:51:25;;;;;;;2.75;2.15;;;3.90;85.00;;;;;;5096981;28;20404;-69
2020/12/18 04:53:53;;;;;;;3.83;2.83;;;4.00;85.00;;;;;;5096690;28;20316;-69
2020/12/18 04:56:25;;;;;;;3.88;2.42;;;4.00;84.10;;;;;;5096449;28;20033;-69
2020/12/18 04:58:55;;;;;;;4.43;2.53;;;4.00;84.50;;;;;;5096531;28;20028;-69
2020/12/18 05:01:25;;;;;;;3.28;2.55;;;4.10;84.20;;;;;;5096455;28;20043;-69
2020/12/18 05:03:52;;;;;;;4.38;2.50;;;4.10;84.10;;;;;;5096276;28;20495;-69
2020/12/18 05:06:18;;;;;;;3.35;2.60;;;4.10;84.00;;;;;;5096620;28;20108;-69
2020/12/18 05:08:45;;;;;;;2.35;1.95;;;4.20;84.00;;;;;;5096394;28;20024;-69
2020/12/18 05:11:25;;;;;;;2.90;2.25;;;4.30;83.90;;;;;;5096969;28;20024;-69
2020/12/18 05:13:53;;;;;;;3.17;2.50;;;4.40;83.10;;;;;;5096255;28;20024;-69
2020/12/18 05:16:23;;;;;;;2.70;2.20;;;4.50;83.70;;;;;;5096281;28;20024;-69
2020/12/18 05:18:49;;;;;;;3.13;2.20;;;4.60;82.20;;;;;;5081513;28;20437;-69
2020/12/18 05:21:15;;;;;;;2.40;2.05;;;4.60;82.30;;;;;;5100268;28;20297;-69
2020/12/18 05:23:43;;;;;;;3.05;2.17;;;4.60;82.60;;;;;;5099978;28;20315;-69
2020/12/18 05:26:10;;;;;;;2.63;2.08;;;4.50;82.40;;;;;;5099552;28;20031;-70
2020/12/18 05:28:48;;;;;;;2.58;1.70;;;4.50;82.10;;;;;;5099805;28;20047;-69
2020/12/18 05:31:19;;;;;;;3.05;1.73;;;4.40;82.10;;;;;;5099917;28;20070;-69
2020/12/18 05:33:48;;;;;;;3.05;1.88;;;4.40;82.80;;;;;;5099636;28;20101;-69
2020/12/18 05:36:14;;;;;;;3.03;2.38;;;4.30;83.20;;;;;;5099733;28;20032;-69
2020/12/18 05:38:41;;;;;;;3.15;2.53;;;4.20;83.30;;;;;;5099638;28;20024;-69
2020/12/18 05:41:08;;;;;;;2.80;2.50;;;4.20;83.30;;;;;;5099419;28;20032;-69
2020/12/18 05:43:42;;;;;;;3.53;2.28;;;4.20;83.10;;;;;;5099563;28;20366;-69
2020/12/18 05:46:25;;;;;;;2.85;2.10;;;4.10;83.50;;;;;;5099917;28;20074;-69
2020/12/18 05:49:04;;;;;;;5.35;3.00;;;4.00;84.10;;;;;;5099565;28;20028;-69
2020/12/18 05:51:35;;;;;;;3.47;2.65;;;3.90;84.60;;;;;;5099656;28;20025;-69
2020/12/18 05:54:15;;;;;;;8.15;4.68;;;4.00;84.20;;;;;;5099469;28;20036;-69
2020/12/18 05:56:44;;;;;;;17.90;9.30;;;4.00;84.30;;;;;;5099640;28;20032;-69
2020/12/18 05:59:15;;;;;;;5.40;2.50;;;4.00;85.40;;;;;;5099268;28;20051;-69
2020/12/18 06:01:52;;;;;;;3.55;2.65;;;4.00;85.40;;;;;;5099299;28;20039;-69
2020/12/18 06:04:25;;;;;;;3.72;2.53;;;4.00;85.60;;;;;;5098997;28;20102;-69
2020/12/18 06:06:55;;;;;;;3.30;2.10;;;4.00;86.10;;;;;;5099270;28;20024;-69
2020/12/18 06:09:28;;;;;;;2.95;2.42;;;4.10;85.20;;;;;;5081171;28;20016;-69
2020/12/18 06:11:57;;;;;;;4.82;2.60;;;4.30;84.90;;;;;;5099280;28;20028;-69
2020/12/18 06:14:23;;;;;;;3.08;2.40;;;4.40;84.30;;;;;;5099162;28;20284;-69
2020/12/18 06:16:53;;;;;;;2.75;2.20;;;4.50;83.50;;;;;;5098925;28;20032;-69
2020/12/18 06:19:22;;;;;;;3.47;2.50;;;4.60;83.60;;;;;;5098912;28;20415;-69
2020/12/18 06:21:57;;;;;;;3.67;2.63;;;4.70;83.20;;;;;;5098980;28;20099;-69
2020/12/18 06:24:23;;;;;;;3.75;2.58;;;4.80;82.10;;;;;;5098592;28;20036;-69
2020/12/18 06:26:57;;;;;;;3.58;2.28;;;4.80;81.90;;;;;;5098693;28;20055;-69
2020/12/18 06:29:25;;;;;;;2.45;1.80;;;4.80;81.80;;;;;;5097557;28;20069;-69
2020/12/18 06:31:51;;;;;;;2.60;1.92;;;4.80;81.70;;;;;;5098950;28;20315;-69
2020/12/18 06:34:28;;;;;;;2.70;2.33;;;4.70;82.00;;;;;;5098513;28;20111;-69
2020/12/18 06:36:59;;;;;;;4.32;2.63;;;4.70;82.50;;;;;;5098738;28;20043;-69
2020/12/18 06:39:35;;;;;;;3.78;2.33;;;4.80;82.00;;;;;;5098418;28;20111;-69
2020/12/18 06:42:19;;;;;;;3.97;2.50;;;4.80;82.20;;;;;;5098711;28;20031;-69
2020/12/18 06:44:48;;;;;;;3.90;2.92;;;4.80;82.60;;;;;;5098215;28;20028;-69
2020/12/18 06:47:19;;;;;;;3.50;2.70;;;4.70;82.60;;;;;;5098289;28;20050;-69
2020/12/18 06:50:10;;;;;;;3.50;2.67;;;4.80;82.50;;;;;;5098227;28;20017;-69
2020/12/18 06:52:46;;;;;;;4.53;2.90;;;4.70;82.90;;;;;;5080239;28;20028;-69
2020/12/18 06:55:30;;;;;;;4.47;2.55;;;4.70;82.40;;;;;;5098391;28;20040;-69
2020/12/18 06:58:18;;;;;;;5.75;2.53;;;4.70;82.90;;;;;;5098103;28;20383;-69
2020/12/18 07:00:55;;;;;;;3.95;2.55;;;4.80;83.10;;;;;;5098246;28;20103;-69
2020/12/18 07:03:40;;;;;;;2.83;2.33;;;4.80;82.50;;;;;;5098060;28;20431;-69
2020/12/18 07:06:10;;;;;;;3.60;2.80;;;4.80;82.70;;;;;;5098242;28;20154;-69
2020/12/18 07:08:38;;;;;;;3.58;2.65;;;4.70;82.80;;;;;;5097921;28;20412;-69
2020/12/18 07:11:13;;;;;;;6.18;3.33;;;4.70;82.80;;;;;;5098159;28;20023;-69
2020/12/18 07:13:47;;;;;;;4.10;2.40;;;4.60;83.20;;;;;;5097967;28;20020;-69
2020/12/18 07:16:16;;;;;;;3.45;2.33;;;4.60;83.20;;;;;;5097832;28;20032;-69
2020/12/18 07:18:46;;;;;;;2.95;2.55;;;4.50;83.30;;;;;;5097781;28;20035;-69
2020/12/18 07:21:16;;;;;;;4.63;2.70;;;4.50;83.10;;;;;;5097707;28;20043;-69
2020/12/18 07:23:49;;;;;;;3.55;2.63;;;4.60;83.10;;;;;;5098103;28;20044;-69
2020/12/18 07:26:19;;;;;;;5.22;2.85;;;4.60;83.20;;;;;;5097629;28;20319;-69
2020/12/18 07:28:47;;;;;;;3.42;2.17;;;4.70;83.70;;;;;;5097590;28;20028;-69
2020/12/18 07:31:23;;;;;;;3.72;1.90;;;4.80;83.70;;;;;;5097772;28;20028;-69
2020/12/18 07:34:07;;;;;;;4.38;2.20;;;5.00;82.50;;;;;;5097439;28;20062;-69
2020/12/18 07:36:36;;;;;;;4.03;2.22;;;5.10;82.40;;;;;;5097660;28;20024;-69
2020/12/18 07:39:02;;;;;;;2.67;2.10;;;5.10;82.40;;;;;;5097324;28;20047;-69
2020/12/18 07:41:33;;;;;;;2.85;2.35;;;5.20;82.90;;;;;;5097337;28;20345;-69
2020/12/18 07:44:08;;;;;;;2.45;1.90;;;5.20;83.00;;;;;;5097229;28;20032;-69
2020/12/18 07:46:39;;;;;;;2.80;2.20;;;5.30;83.20;;;;;;5097329;28;20070;-69
2020/12/18 07:49:09;;;;;;;2.58;2.00;;;5.40;82.90;;;;;;5079314;28;20331;-69
2020/12/18 07:51:36;;;;;;;2.13;1.85;;;5.40;83.40;;;;;;5097449;28;20025;-69
2020/12/18 07:54:02;;;;;;;2.72;1.73;;;5.50;83.10;;;;;;5097013;28;20420;-69
2020/12/18 07:56:27;;;;;;;2.53;1.88;;;5.50;81.60;;;;;;5097368;28;20044;-69
2020/12/18 07:58:57;;;;;;;2.65;1.92;;;5.60;82.40;;;;;;5097038;28;20370;-69
2020/12/18 08:01:30;;;;;;;2.80;2.05;;;5.70;82.20;;;;;;5079177;28;20369;-69
2020/12/18 08:04:08;;;;;;;4.57;2.92;;;5.80;81.90;;;;;;5096844;28;20081;-69
2020/12/18 08:06:49;;;;;;;5.78;2.95;;;5.80;82.50;;;;;;5097408;28;20035;-69
2020/12/18 08:09:16;;;;;;;4.22;2.83;;;5.90;81.80;;;;;;5096921;28;20077;-69
2020/12/18 08:11:45;;;;;;;3.90;2.88;;;6.10;82.60;;;;;;5097234;28;20024;-69
2020/12/18 08:14:12;;;;;;;3.85;3.08;;;6.20;81.70;;;;;;5097080;28;20032;-69
2020/12/18 08:16:39;;;;;;;4.18;3.03;;;6.30;81.70;;;;;;5096939;28;20148;-69
2020/12/18 08:19:12;;;;;;;3.38;2.72;;;6.40;81.60;;;;;;5096761;28;20036;-69
2020/12/18 08:21:46;;;;;;;4.53;3.22;;;6.50;81.20;;;;;;5097026;28;20028;-69
2020/12/18 08:24:38;;;;;;;4.18;2.80;;;6.70;80.00;;;;;;5078906;28;20036;-69
2020/12/18 08:27:06;;;;;;;4.43;2.40;;;6.70;79.30;;;;;;5096685;28;20048;-69
2020/12/18 08:29:40;;;;;;;4.22;3.10;;;6.80;78.70;;;;;;5096690;28;20419;-69
2020/12/18 08:32:07;;;;;;;3.33;2.83;;;6.90;78.70;;;;;;5096734;28;20039;-69
2020/12/18 08:34:36;;;;;;;3.17;2.47;;;7.10;77.90;;;;;;5096621;28;20032;-69
2020/12/18 08:37:05;;;;;;;4.30;2.55;;;7.30;77.00;;;;;;5096652;28;20031;-69
2020/12/18 08:39:33;;;;;;;2.67;2.25;;;7.30;77.20;;;;;;5096548;28;20058;-69
2020/12/18 08:42:00;;;;;;;5.15;2.45;;;7.40;77.70;;;;;;5097159;28;20385;-69
2020/12/18 08:44:28;;;;;;;2.75;2.33;;;7.50;76.50;;;;;;5096730;28;20028;-69
2020/12/18 08:46:55;;;;;;;4.75;2.83;;;7.50;76.50;;;;;;5096481;28;20019;-69
2020/12/18 08:49:27;;;;;;;3.83;2.88;;;7.70;78.60;;;;;;5078848;28;20299;-69
2020/12/18 08:51:54;;;;;;;4.05;2.70;;;7.80;77.30;;;;;;5096949;28;20103;-69
2020/12/18 08:54:29;;;;;;;4.00;3.60;;;7.80;76.90;;;;;;5082622;28;20032;-69
2020/12/18 08:57:29;;;;;;;4.18;3.05;;;7.90;78.60;;;;;;5100425;28;20363;-69
2020/12/18 09:00:15;;;;;;;3.95;3.17;;;8.00;77.90;;;;;;5100456;28;20047;-69
2020/12/18 09:02:49;;;;;;;4.47;3.30;;;8.00;76.20;;;;;;5100787;28;20020;-69
2020/12/18 09:05:23;;;;;;;3.72;3.05;;;8.00;76.50;;;;;;5100145;28;20024;-69
2020/12/18 09:07:54;;;;;;;4.60;2.85;;;8.00;78.30;;;;;;5100257;28;20073;-69
2020/12/18 09:10:52;;;;;;;4.38;3.05;;;8.10;79.00;;;;;;5100189;28;20036;-70
2020/12/18 09:13:25;;;;;;;3.50;3.03;;;8.20;77.40;;;;;;5099932;28;20024;-70
2020/12/18 09:16:12;;;;;;;2.95;2.47;;;8.20;76.30;;;;;;5100044;28;20032;-69
2020/12/18 09:18:44;;;;;;;3.63;2.10;;;8.20;76.60;;;;;;5100064;28;20028;-69
2020/12/18 09:21:15;;;;;;;4.07;2.92;;;8.30;77.10;;;;;;5100557;28;20035;-69
2020/12/18 09:23:42;;;;;;;5.10;2.90;;;8.40;75.80;;;;;;5100005;28;20028;-70
2020/12/18 09:26:08;;;;;;;3.58;2.72;;;8.50;75.10;;;;;;5100133;28;20052;-69
2020/12/18 09:28:40;;;;;;;4.05;2.80;;;8.70;73.60;;;;;;5099874;28;20036;-70
2020/12/18 09:31:08;;;;;;;4.07;2.90;;;8.80;73.80;;;;;;5100123;28;20039;-70
2020/12/18 09:33:36;;;;;;;3.70;2.95;;;8.90;73.70;;;;;;5099968;28;20323;-71
2020/12/18 09:36:09;;;;;;;3.90;2.97;;;9.40;72.50;;;;;;5099688;28;20023;-70
2020/12/18 09:38:38;;;;;;;4.85;2.78;;;10.20;70.60;;;;;;5099686;28;20103;-70
2020/12/18 09:41:14;;;;;;;4.68;2.72;;;11.10;68.70;;;;;;5099694;28;20026;-70
2020/12/18 09:43:40;;;;;;;3.05;2.42;;;12.20;64.50;;;;;;5099823;28;20032;-70
2020/12/18 09:46:15;;;;;;;4.18;2.67;;;13.10;62.50;;;;;;5099455;28;20147;-70
2020/12/18 09:48:46;;;;;;;4.13;2.60;;;13.70;59.00;;;;;;5099648;28;20383;-70
2020/12/18 09:51:13;;;;;;;2.70;2.30;;;14.10;57.80;;;;;;5099421;28;20047;-70
2020/12/18 09:53:38;;;;;;;3.85;2.03;;;14.50;56.90;;;;;;5099491;28;20016;-70
2020/12/18 09:56:07;;;;;;;2.80;2.17;;;14.70;56.70;;;;;;5081303;28;20055;-70
2020/12/18 09:58:33;;;;;;;2.60;1.80;;;14.80;55.30;;;;;;5099210;28;20028;-70
2020/12/18 10:00:59;;;;;;;3.28;2.10;;;15.20;53.60;;;;;;5099469;28;20070;-70
2020/12/18 10:03:24;;;;;;;2.30;1.60;;;15.50;54.40;;;;;;5098915;28;20031;-70
2020/12/18 10:05:50;;;;;;;1.77;1.48;;;15.80;52.90;;;;;;5080827;28;20357;-71
2020/12/18 10:08:16;;;;;;;2.00;1.80;;;16.00;51.70;;;;;;5090439;28;20024;-71
2020/12/18 10:10:42;;;;;;;2.40;1.75;;;16.30;52.50;;;;;;5085774;28;20047;-70
2020/12/18 10:13:11;;;;;;;2.95;1.63;;;16.50;51.30;;;;;;5061015;28;20408;-70
2020/12/18 10:15:36;;;;;;;1.95;1.50;;;16.80;51.40;;;;;;5078642;28;20020;-71
2020/12/18 10:18:02;;;;;;;2.33;1.25;;;17.00;49.60;;;;;;5078811;28;20317;-71
2020/12/18 10:20:28;;;;;;;2.20;1.35;;;16.90;49.40;;;;;;5079000;28;20025;-71
2020/12/18 10:22:54;;;;;;;2.42;1.63;;;17.10;49.20;;;;;;5078671;28;20051;-70
2020/12/18 10:25:20;;;;;;;2.00;1.50;;;16.60;49.60;;;;;;5078619;28;20040;-70
2020/12/18 10:27:45;;;;;;;2.42;1.65;;;16.40;50.20;;;;;;5078269;28;20055;-70
2020/12/18 10:30:15;;;;;;;1.85;1.40;;;16.10;50.10;;;;;;5078777;28;20032;-70
2020/12/18 10:32:42;;;;;;;1.63;1.30;;;16.00;51.10;;;;;;5078610;28;20017;-70
2020/12/18 10:35:08;;;;;;;1.67;1.25;;;16.00;50.70;;;;;;5078286;28;20021;-70
2020/12/18 10:37:34;;;;;;;2.83;1.30;;;16.20;49.90;;;;;;5078380;28;20032;-70
2020/12/18 10:40:00;;;;;;;2.85;1.60;;;16.50;50.00;;;;;;5078453;28;20034;-70
2020/12/18 10:42:26;;;;;;;1.65;1.10;;;16.50;49.80;;;;;;5078190;28;20028;-70
2020/12/18 10:44:55;;;;;;;2.28;1.48;;;16.80;50.80;;;;;;5078263;28;20028;-71
2020/12/18 10:47:20;;;;;;;2.30;1.55;;;17.10;49.80;;;;;;5078104;28;20029;-70
2020/12/18 10:49:46;;;;;;;2.38;1.55;;;17.30;49.60;;;;;;5078265;28;20029;-71
2020/12/18 10:52:12;;;;;;;4.05;1.48;;;17.50;48.70;;;;;;5078299;28;20028;-71
2020/12/18 10:54:38;;;;;;;2.97;1.80;;;17.30;48.70;;;;;;5077815;28;20042;-71
2020/12/18 10:57:06;;;;;;;2.45;1.70;;;17.30;49.00;;;;;;5077879;28;20439;-70
2020/12/18 10:59:33;;;;;;;5.28;2.20;;;17.10;49.00;;;;;;5077847;28;20029;-70
2020/12/18 11:02:00;;;;;;;2.42;1.75;;;16.90;49.40;;;;;;5060178;28;20024;-71
2020/12/18 11:04:26;;;;;;;2.67;1.90;;;16.90;49.70;;;;;;5077632;28;20028;-70
2020/12/18 11:06:53;;;;;;;4.18;1.88;;;16.90;49.40;;;;;;5077723;28;20028;-70
2020/12/18 11:09:22;;;;;;;3.60;2.00;;;16.80;49.10;;;;;;5077905;28;20021;-70
2020/12/18 11:11:57;;;;;;;2.53;1.88;;;16.50;50.20;;;;;;5077712;28;20021;-70
2020/12/18 11:14:23;;;;;;;3.13;2.10;;;16.40;50.60;;;;;;5077294;28;20024;-70
2020/12/18 11:16:49;;;;;;;2.58;2.00;;;16.60;49.60;;;;;;5077098;28;20258;-70
2020/12/18 11:19:15;;;;;;;3.38;2.35;;;16.50;50.70;;;;;;5077463;28;20024;-70
2020/12/18 11:21:48;;;;;;;2.88;2.20;;;16.60;51.20;;;;;;5077904;28;20320;-70
2020/12/18 11:24:14;;;;;;;2.97;2.63;;;16.80;50.20;;;;;;5077531;28;20024;-70
2020/12/18 11:26:49;;;;;;;3.70;2.13;;;16.90;50.60;;;;;;5059429;28;20139;-70
2020/12/18 11:29:15;;;;;;;3.80;2.90;;;16.80;49.50;;;;;;5077372;28;20028;-70
2020/12/18 11:31:41;;;;;;;3.58;2.60;;;16.90;51.30;;;;;;5077227;28;20029;-70
2020/12/18 11:34:06;;;;;;;4.18;2.97;;;16.80;50.40;;;;;;5077355;28;20020;-70
2020/12/18 11:36:36;;;;;;;3.08;2.53;;;16.60;51.30;;;;;;5077141;28;20078;-70
2020/12/18 11:39:04;;;;;;;4.05;2.55;;;16.60;50.50;;;;;;5077094;28;20035;-70
2020/12/18 11:41:30;;;;;;;2.60;2.33;;;16.60;50.40;;;;;;5077450;28;20052;-70
2020/12/18 11:43:55;;;;;;;4.28;3.22;;;16.70;50.80;;;;;;5076908;28;20059;-70
2020/12/18 11:46:21;;;;;;;3.03;2.30;;;16.60;51.30;;;;;;5077028;28;20077;-70
2020/12/18 11:48:47;;;;;;;5.45;3.22;;;16.50;49.90;;;;;;5077016;28;20020;-70
2020/12/18 11:51:13;;;;;;;3.28;2.30;;;16.30;52.80;;;;;;5076978;28;20107;-70
2020/12/18 11:53:42;;;;;;;3.05;2.47;;;16.20;51.20;;;;;;5077188;28;20055;-70
2020/12/18 11:56:08;;;;;;;4.10;3.00;;;16.30;52.10;;;;;;5059045;28;20332;-70
2020/12/18 11:58:36;;;;;;;4.93;2.90;;;16.20;51.70;;;;;;5076892;28;20028;-70
2020/12/18 12:01:02;;;;;;;3.67;2.60;;;16.10;52.50;;;;;;5077132;28;20115;-70
2020/12/18 12:03:31;;;;;;;4.07;2.10;;;16.00;51.90;;;;;;5076717;28;20060;-70
2020/12/18 12:06:00;;;;;;;3.28;2.92;;;16.00;51.30;;;;;;5076790;28;20024;-70
2020/12/18 12:08:26;;;;;;;3.30;2.33;;;16.00;52.00;;;;;;5076746;28;20016;-70
2020/12/18 12:10:51;;;;;;;4.10;2.70;;;16.00;51.40;;;;;;5076846;28;20028;-70
2020/12/18 12:13:17;;;;;;;3.50;2.75;;;16.00;51.60;;;;;;5076697;28;20409;-70
2020/12/18 12:15:43;;;;;;;3.55;2.75;;;15.80;51.90;;;;;;5076521;28;20032;-70
2020/12/18 12:18:12;;;;;;;3.65;2.50;;;15.60;52.30;;;;;;5076584;28;20017;-70
2020/12/18 12:20:38;;;;;;;3.97;2.40;;;15.40;52.90;;;;;;5076642;28;20033;-70
2020/12/18 12:23:03;;;;;;;3.67;2.92;;;15.30;52.80;;;;;;5076585;28;20028;-70
2020/12/18 12:25:29;;;;;;;3.90;3.17;;;15.20;52.50;;;;;;5076706;28;20070;-70
2020/12/18 12:27:58;;;;;;;3.67;2.50;;;15.30;53.50;;;;;;5080166;28;20203;-70
2020/12/18 12:30:24;;;;;;;3.05;2.30;;;15.40;53.60;;;;;;5081021;28;20023;-70
2020/12/18 12:32:54;;;;;;;3.90;3.00;;;15.20;53.40;;;;;;5080681;28;20025;-70
2020/12/18 12:35:23;;;;;;;2.47;2.08;;;15.20;53.70;;;;;;5080594;28;20021;-70
2020/12/18 12:37:49;;;;;;;4.38;2.35;;;15.10;53.10;;;;;;5080746;28;20317;-70
2020/12/18 12:40:15;;;;;;;4.40;2.85;;;14.70;53.50;;;;;;5080809;28;20035;-70
2020/12/18 12:42:44;;;;;;;4.13;2.83;;;14.40;54.70;;;;;;5080492;28;20411;-70
2020/12/18 12:45:10;;;;;;;4.00;2.97;;;14.10;54.70;;;;;;5080317;28;20021;-70
2020/12/18 12:47:39;;;;;;;3.03;2.65;;;14.00;55.60;;;;;;5080411;28;20070;-70
2020/12/18 12:50:05;;;;;;;4.35;3.38;;;13.80;57.40;;;;;;5080286;28;20035;-70
2020/12/18 12:52:32;;;;;;;4.30;3.38;;;13.60;58.20;;;;;;5080213;28;20025;-70
2020/12/18 12:55:00;;;;;;;6.25;4.10;;;13.50;59.00;;;;;;5080660;28;20101;-70
2020/12/18 12:57:25;;;;;;;4.32;3.55;;;13.30;59.50;;;;;;5080093;28;20425;-70
2020/12/18 12:59:51;;;;;;;5.07;3.75;;;13.00;59.30;;;;;;5080437;28;20035;-70
2020/12/18 13:02:17;;;;;;;4.05;2.90;;;12.60;61.40;;;;;;5080150;28;20028;-70
2020/12/18 13:04:43;;;;;;;8.25;3.92;;;12.30;60.70;;;;;;5079883;28;20025;-70